Etusivu
METAR-TAF:

METAR-TAF

Lentoasemat :

Detroit, Michigan, Yhdysvallat

Leveyspiiri: 42-24-33N, Pituuspiiri: 083-00-36W, korkeus merenpinnasta: 191 m

Tämänhetkinen sää

Tämä raportti tehtiin 36 minuuttia sitten, kello 07.53 UTC
Tuuli 7 kn lounaasta
Lämpötila 22°C
Kosteus 65%
Ilmanpaine 1014 hPa
Näkyvyys: 16.1 km
selkeää

METAR: KDET 260753Z 23007KT 10SM CLR 22/15 A2993 RMK AO2 SLP129 T02220150

Aika: 04:29 (08:29 UTC)

Sääennuste

Tämä raportti tehtiin 3 tuntia ja 9 minuuttia sitten, kello 05.20 UTC
Ennuste voimassa 26. päivästä klo 06 UTC - 27. päivään klo 06 UTC
Tuuli 7 kn lounaasta
Näkyvyys: 10 km
Hajanaisia pilviä 25000 ft:n korkeudessa
From 26. päivästä klo 1100 UTC
Tuuli 8 kn lännestä/lounaasta
Näkyvyys: 10 km
Hajonneita pilviä 20000 ft:n korkeudessa
From 26. päivästä klo 1800 UTC
Tuuli 12 kn lännestä
Näkyvyys: 10 km
Muutamia pilviä 7000 ft:n korkeudessa

TAF: KDET 260520Z 2606/2706 22007KT P6SM SCT250 FM261100 25008KT P6SM BKN200 FM261800 26012KT P6SM FEW070

Säähavainnot ja -ennusteet yli 4000 lentoasemalta (METAR- ja TAF-raportit).

Käytössä olevat sääasemat on merkitty karttaan keltaisilla ja punaisilla pisteillä.

Aseta hiiri pisteen päälle nähdäksesi sääaseman nimen.

Klikkaa sitten nähdäksesi säähavainnot ja -ennusteet.

Kartan vaihtaminen: klikkaa mustalla rastilla varustettuja vihreitä pisteitä, niin voit zoomata sisään; viivalla varustettua vihreää pistettä, niin voit zoomata ulos tai vihreitä nuolia, niin pääset viereisille kartoille.


METAR-TAF: